Aérodrome :
LOGIN :

S'inscrire | Disclaimer

   EN    FR    IT 

 










Légende :    VFR   VFR Marginal   IFR   IFR Intensif   IFR Très Intensif
Visi : 
Plafond : 
>= 8 km
>= 3000ft
5 à 8 km
1000 à 3000 ft
1500m à 5 km
500 à 1000 ft
800 à 1500m
200 à 500 ft
< 800m
< 200 ft
Symboles :   Orages  Brouillard  Fortes neiges  Fortes précipitations  Vent > 20 kt
SIGMETs :   Divers  Orages  Givrage  Turbulence  Onde Orograph.  Cendres Volcan.






- Altitude de l'aérodrome : 197 ft
- Code IATA : XOG


LFMO - Orange

DERNIER METAR :
  • 071630Z AUTO 34016KT CAVOK 29/08 Q1014 BECMG 35020G30KT

METARs EXPIRÉS :
  • 071600Z AUTO 35015KT 320V020 CAVOK 29/08 Q1014 BECMG 35020G30KT
  • 071530Z AUTO 34016KT CAVOK 30/08 Q1014 BECMG 35020G30KT
  • 071500Z AUTO 35018KT CAVOK 30/08 Q1014 BECMG 35020G30KT
  • 071430Z AUTO 34019KT CAVOK 30/08 Q1014 BECMG 35020G30KT
  • 071400Z AUTO 34021KT CAVOK 29/08 Q1014 BECMG 35020G30KT

TAF TAF LFMO
Valide du 07 à 15h jusqu'au 08 à 15h UTC


071400Z 0715/0815 35020G30KT CAVOK
BECMG 0804/0806 33015KT
BECMG 0810/0812 33005KT



MET'MAP, la Météo Aéronautique d'un coup d'oeil ! - Copyright ORBIFLY Décembre 2007 - Disclaimer

ORBIFLY MET'MAP TEAM :

Programmation & Développement : Alexandra Zaïnal
Sur une idée originale de : Baudouin d'Aumeries
Assistance à la programmation : Marc-Olivier Méhu
Soutien technique & logistique : Manuel Goepfert

Contact : metmap@orbifly.com




SOURCES & CREDITS :

   NOAA